Time;durP1;ratioP1;P1;durP2;ratioP2;P2;SDS_P1;SDS_P2;PMS_P1;PMS_P2;Temp;Humidity;BMP_temperature;BMP_pressure;BME280_temperature;BME280_humidity;BME280_pressure;Samples;Min_cycle;Max_cycle;Signal;HPM_P1;HPM_P2
2022/07/04 00:00:23;;;;;;;;;;;;;;;17.16;100.00;99645.19;1714517;82;20120;-69
2022/07/04 00:02:53;;;;;;;;;;;;;;;17.23;100.00;99644.56;1709885;82;20148;-69
2022/07/04 00:05:21;;;;;;;;;;;;;;;17.27;100.00;99645.45;1709864;83;21123;-69
2022/07/04 00:07:51;;;;;;;;;;;;;;;17.32;100.00;99641.83;1657042;85;20120;-69
2022/07/04 00:10:23;;;;;;;;;;;;;;;17.34;100.00;99636.70;1677428;85;20470;-69
2022/07/04 00:12:51;;;;;;;;;;;;;;;17.39;100.00;99641.17;1677937;84;20144;-69
2022/07/04 00:15:19;;;;;;;;;;;;;;;17.44;100.00;99645.06;1677946;85;20144;-69
2022/07/04 00:17:50;;;;;;;;;;;;;;;17.48;100.00;99647.34;1657399;85;20115;-69
2022/07/04 00:20:21;;;;;;;;;;;;;;;17.54;100.00;99646.49;1656900;85;20135;-69
2022/07/04 00:22:52;;;;;;;;;;;;;;;17.56;100.00;99640.80;1677658;85;20192;-69
2022/07/04 00:25:24;;;;;;;;;;;;;;;17.59;100.00;99642.86;1677531;85;20466;-69
2022/07/04 00:27:55;;;;;;;;;;;;;;;17.57;100.00;99636.86;1669873;84;20143;-68
2022/07/04 00:30:27;;;;;;;;;;;;;;;17.54;100.00;99637.58;1634629;86;20629;-68
2022/07/04 00:32:56;;;;;;;;;;;;;;;17.53;100.00;99633.78;1664059;86;20093;-68
2022/07/04 00:35:23;;;;;;;;;;;;;;;17.51;100.00;99638.30;1664103;86;20088;-68
2022/07/04 00:37:51;;;;;;;;;;;;;;;17.49;100.00;99633.70;1652124;86;20144;-68
2022/07/04 00:40:24;;;;;;;;;;;;;;;17.46;100.00;99631.64;1663812;85;20183;-68
2022/07/04 00:42:52;;;;;;;;;;;;;;;17.39;100.00;99632.27;1681515;84;21098;-68
2022/07/04 00:45:24;;;;;;;;;;;;;;;17.34;100.00;99631.73;1695115;84;20632;-68
2022/07/04 00:47:53;;;;;;;;;;;;;;;17.28;100.00;99642.91;1694734;84;20076;-68
2022/07/04 00:50:27;;;;;;;;;;;;;;;17.20;100.00;99644.70;1664881;85;20429;-68
2022/07/04 00:53:00;;;;;;;;;;;;;;;17.13;100.00;99641.16;1665652;86;20116;-68
2022/07/04 00:55:28;;;;;;;;;;;;;;;17.08;100.00;99638.64;1665450;85;21833;-68
2022/07/04 00:57:54;;;;;;;;;;;;;;;17.02;100.00;99638.69;1696170;83;20100;-68
2022/07/04 01:00:32;;;;;;;;;;;;;;;16.94;100.00;99639.66;1670615;84;20120;-68
2022/07/04 01:03:01;;;;;;;;;;;;;;;16.87;100.00;99646.39;1679741;84;20112;-68
2022/07/04 01:05:30;;;;;;;;;;;;;;;16.80;100.00;99635.11;1696059;84;20417;-68
2022/07/04 01:07:57;;;;;;;;;;;;;;;16.72;100.00;99627.22;1712833;82;21606;-69
2022/07/04 01:10:26;;;;;;;;;;;;;;;16.67;100.00;99628.05;1709237;84;20095;-68
2022/07/04 01:12:56;;;;;;;;;;;;;;;16.59;100.00;99630.37;1690612;84;20075;-68
2022/07/04 01:15:26;;;;;;;;;;;;;;;16.51;100.00;99628.78;1690278;84;20445;-68
2022/07/04 01:17:57;;;;;;;;;;;;;;;16.44;100.00;99632.73;1709672;83;20084;-68
2022/07/04 01:20:22;;;;;;;;;;;;;;;16.38;100.00;99634.72;1708788;84;21532;-68
2022/07/04 01:22:51;;;;;;;;;;;;;;;16.32;100.00;99643.86;1689822;84;20100;-68
2022/07/04 01:25:21;;;;;;;;;;;;;;;16.27;100.00;99642.72;1690696;84;20083;-69
2022/07/04 01:27:48;;;;;;;;;;;;;;;16.20;100.00;99636.97;1713066;82;20446;-69
2022/07/04 01:30:21;;;;;;;;;;;;;;;16.12;100.00;99636.56;1702358;83;20116;-68
2022/07/04 01:32:48;;;;;;;;;;;;;;;16.04;100.00;99635.55;1709458;83;21625;-69
2022/07/04 01:35:14;;;;;;;;;;;;;;;15.95;100.00;99640.98;1709413;84;20435;-69
2022/07/04 01:37:41;;;;;;;;;;;;;;;15.86;100.00;99636.96;1709285;84;20096;-68
2022/07/04 01:40:12;;;;;;;;;;;;;;;15.80;100.00;99638.35;1709233;84;20517;-69
2022/07/04 01:42:43;;;;;;;;;;;;;;;15.71;100.00;99631.56;1709563;84;20083;-69
2022/07/04 01:45:14;;;;;;;;;;;;;;;15.64;100.00;99640.21;1705253;84;39992;-69
2022/07/04 01:47:47;;;;;;;;;;;;;;;15.58;100.00;99639.67;1713605;83;20115;-69
2022/07/04 01:50:12;;;;;;;;;;;;;;;15.52;100.00;99636.88;1708860;84;20103;-68
2022/07/04 01:52:42;;;;;;;;;;;;;;;15.47;100.00;99643.44;1709242;84;20190;-69
2022/07/04 01:55:13;;;;;;;;;;;;;;;15.41;100.00;99642.63;1689312;84;20120;-69
2022/07/04 01:57:40;;;;;;;;;;;;;;;15.38;100.00;99639.17;1709346;84;21079;-68
2022/07/04 02:02:59;;;;;;;;;;;;;;;15.28;100.00;99637.67;1713603;82;20120;-69
2022/07/04 02:05:30;;;;;;;;;;;;;;;15.23;100.00;99640.66;1708899;84;20438;-69
2022/07/04 02:08:06;;;;;;;;;;;;;;;15.19;100.00;99639.73;1651580;86;20147;-69
2022/07/04 02:10:34;;;;;;;;;;;;;;;15.15;100.00;99639.61;1652873;86;21521;-68
2022/07/04 02:13:03;;;;;;;;;;;;;;;15.10;100.00;99635.69;1678077;84;20088;-69
2022/07/04 02:15:46;;;;;;;;;;;;;;;15.05;100.00;99644.20;1653075;86;20124;-69
2022/07/04 02:18:18;;;;;;;;;;;;;;;15.00;100.00;99647.22;1654533;86;20108;-69
2022/07/04 02:20:44;;;;;;;;;;;;;;;14.97;100.00;99646.52;1699630;83;20131;-69
2022/07/04 02:23:13;;;;;;;;;;;;;;;14.94;100.00;99648.59;1709548;84;21088;-69
2022/07/04 02:25:44;;;;;;;;;;;;;;;14.92;100.00;99648.13;1709493;84;20478;-69
2022/07/04 02:28:14;;;;;;;;;;;;;;;14.92;100.00;99646.73;1708942;83;20108;-68
2022/07/04 02:30:42;;;;;;;;;;;;;;;14.92;100.00;99644.55;1689163;84;20436;-69
2022/07/04 02:33:11;;;;;;;;;;;;;;;14.91;100.00;99645.70;1708861;84;20091;-69
2022/07/04 02:35:39;;;;;;;;;;;;;;;14.91;100.00;99647.89;1709314;84;21496;-68
2022/07/04 02:38:11;;;;;;;;;;;;;;;14.91;100.00;99643.74;1707262;83;20103;-68
2022/07/04 02:40:47;;;;;;;;;;;;;;;14.91;100.00;99638.79;1689389;84;20143;-69
2022/07/04 02:43:10;;;;;;;;;;;;;;;14.93;100.00;99634.53;1708427;83;20103;-70
2022/07/04 02:45:40;;;;;;;;;;;;;;;14.96;100.00;99635.80;1688893;84;20164;-70
2022/07/04 02:48:09;;;;;;;;;;;;;;;14.98;100.00;99641.80;1708471;82;21175;-71
2022/07/04 02:50:38;;;;;;;;;;;;;;;14.99;100.00;99637.31;1709304;83;20151;-69
2022/07/04 02:53:06;;;;;;;;;;;;;;;15.04;100.00;99639.83;1709850;83;20135;-71
2022/07/04 02:55:46;;;;;;;;;;;;;;;15.10;100.00;99643.17;1709988;83;20151;-72
2022/07/04 02:58:13;;;;;;;;;;;;;;;15.19;100.00;99644.69;1709501;83;20100;-73
2022/07/04 03:00:45;;;;;;;;;;;;;;;15.25;100.00;99640.31;1686491;84;20111;-72
2022/07/04 03:03:11;;;;;;;;;;;;;;;15.29;100.00;99639.28;1685629;84;20423;-71
2022/07/04 03:05:46;;;;;;;;;;;;;;;15.33;100.00;99637.44;1687678;84;20087;-70
2022/07/04 03:08:17;;;;;;;;;;;;;;;15.39;100.00;99636.06;1709501;83;20083;-71
2022/07/04 03:10:45;;;;;;;;;;;;;;;15.45;100.00;99636.64;1687058;84;20092;-69
2022/07/04 03:13:14;;;;;;;;;;;;;;;15.55;100.00;99650.59;1709892;84;21544;-69
2022/07/04 03:15:42;;;;;;;;;;;;;;;15.63;100.00;99649.09;1709628;83;20113;-69
2022/07/04 03:18:19;;;;;;;;;;;;;;;15.73;100.00;99650.58;1686844;84;20126;-70
2022/07/04 03:20:45;;;;;;;;;;;;;;;15.84;100.00;99648.38;1709322;83;20676;-70
2022/07/04 03:23:15;;;;;;;;;;;;;;;15.94;100.00;99649.06;1709893;84;20083;-69
2022/07/04 03:25:41;;;;;;;;;;;;;;;16.04;100.00;99654.92;1726885;82;21876;-72
2022/07/04 03:28:09;;;;;;;;;;;;;;;16.15;100.00;99650.52;1709766;83;20076;-72
2022/07/04 03:30:41;;;;;;;;;;;;;;;16.30;100.00;99650.91;1709793;84;20529;-71
2022/07/04 03:33:18;;;;;;;;;;;;;;;16.46;100.00;99645.66;1656857;85;20148;-72
2022/07/04 03:35:44;;;;;;;;;;;;;;;16.60;100.00;99641.09;1677895;85;20458;-71
2022/07/04 03:38:16;;;;;;;;;;;;;;;16.71;100.00;99642.23;1677982;84;21173;-72
2022/07/04 03:40:44;;;;;;;;;;;;;;;16.82;100.00;99646.66;1656627;85;20447;-72
2022/07/04 03:43:13;;;;;;;;;;;;;;;16.92;100.00;99653.65;1668640;85;20110;-73
2022/07/04 03:45:42;;;;;;;;;;;;;;;17.03;100.00;99651.97;1693028;82;20651;-72
2022/07/04 03:48:08;;;;;;;;;;;;;;;17.15;100.00;99644.95;1701048;83;20441;-72
2022/07/04 03:50:38;;;;;;;;;;;;;;;17.29;100.00;99648.67;1735530;81;21857;-71
2022/07/04 03:53:06;;;;;;;;;;;;;;;17.42;100.00;99647.39;1735290;82;20507;-70
2022/07/04 03:55:35;;;;;;;;;;;;;;;17.54;100.00;99650.08;1735521;82;20423;-73
2022/07/04 03:58:04;;;;;;;;;;;;;;;17.68;100.00;99650.45;1710113;82;20094;-70
2022/07/04 04:00:38;;;;;;;;;;;;;;;17.83;99.12;99646.62;1761449;81;20415;-69
2022/07/04 04:05:55;;;;;;;;;;;;;;;18.10;94.86;99640.06;1698120;84;20130;-69
2022/07/04 04:08:25;;;;;;;;;;;;;;;18.26;91.93;99635.27;1659389;84;20459;-69
2022/07/04 04:10:52;;;;;;;;;;;;;;;18.41;91.78;99634.39;1735510;82;20143;-69
2022/07/04 04:13:20;;;;;;;;;;;;;;;18.51;91.80;99623.83;1735640;82;20095;-69
2022/07/04 04:15:58;;;;;;;;;;;;;;;18.61;90.59;99624.66;1703975;82;20525;-69
2022/07/04 04:18:29;;;;;;;;;;;;;;;18.72;87.24;99624.27;1735499;82;20111;-69
2022/07/04 04:21:01;;;;;;;;;;;;;;;18.85;85.81;99632.67;1742838;81;20119;-69
2022/07/04 04:23:33;;;;;;;;;;;;;;;18.98;85.89;99625.77;1734464;82;20106;-69
2022/07/04 04:26:05;;;;;;;;;;;;;;;19.12;84.79;99626.58;1735721;82;20091;-69
2022/07/04 04:28:32;;;;;;;;;;;;;;;19.24;82.90;99626.39;1735133;82;21563;-69
2022/07/04 04:31:02;;;;;;;;;;;;;;;19.36;81.84;99626.20;1735725;82;20115;-69
2022/07/04 04:33:41;;;;;;;;;;;;;;;19.49;81.80;99621.83;1735692;82;20146;-70
2022/07/04 04:36:08;;;;;;;;;;;;;;;19.60;80.84;99619.46;1704328;82;20440;-69
2022/07/04 04:38:42;;;;;;;;;;;;;;;19.70;78.49;99618.79;1712124;81;20088;-69
2022/07/04 04:41:13;;;;;;;;;;;;;;;19.80;77.94;99621.52;1752440;81;21040;-69
2022/07/04 04:43:39;;;;;;;;;;;;;;;19.90;77.88;99626.45;1765860;81;20104;-68
2022/07/04 04:46:09;;;;;;;;;;;;;;;20.01;77.71;99627.99;1751053;80;20443;-69
2022/07/04 04:48:38;;;;;;;;;;;;;;;20.10;77.45;99627.92;1794785;80;20460;-69
2022/07/04 04:51:10;;;;;;;;;;;;;;;20.20;76.77;99631.23;1765835;80;20080;-69
2022/07/04 04:53:36;;;;;;;;;;;;;;;20.27;76.54;99630.70;1761018;81;21133;-70
2022/07/04 04:56:03;;;;;;;;;;;;;;;20.34;76.26;99630.00;1761257;81;20427;-69
2022/07/04 04:58:36;;;;;;;;;;;;;;;20.42;76.14;99635.31;1761365;81;20435;-70
2022/07/04 05:01:03;;;;;;;;;;;;;;;20.50;76.39;99634.81;1760344;81;20105;-69
2022/07/04 05:03:33;;;;;;;;;;;;;;;20.61;74.74;99632.16;1761294;81;20100;-69
2022/07/04 05:06:03;;;;;;;;;;;;;;;20.68;74.24;99633.63;1760012;81;21123;-69
2022/07/04 05:08:32;;;;;;;;;;;;;;;20.75;74.49;99635.11;1756867;81;20119;-69
2022/07/04 05:11:05;;;;;;;;;;;;;;;20.84;74.30;99630.00;1744495;81;20099;-70
2022/07/04 05:13:36;;;;;;;;;;;;;;;20.92;74.13;99633.07;1731167;81;20095;-69
2022/07/04 05:16:09;;;;;;;;;;;;;;;21.00;73.24;99629.77;1731165;81;20074;-69
2022/07/04 05:18:39;;;;;;;;;;;;;;;21.06;73.13;99634.61;1731158;81;20166;-70
2022/07/04 05:21:09;;;;;;;;;;;;;;;21.14;72.66;99636.88;1696718;83;20425;-69
2022/07/04 05:23:38;;;;;;;;;;;;;;;21.23;73.03;99633.80;1730780;82;20122;-69
2022/07/04 05:26:08;;;;;;;;;;;;;;;21.30;72.51;99633.86;1731166;83;20071;-69
2022/07/04 05:28:37;;;;;;;;;;;;;;;21.37;71.97;99629.74;1737333;81;20143;-69
2022/07/04 05:31:08;;;;;;;;;;;;;;;21.45;71.75;99630.57;1761537;81;21192;-71
2022/07/04 05:33:41;;;;;;;;;;;;;;;21.52;73.47;99637.02;1761167;80;20135;-70
2022/07/04 05:36:05;;;;;;;;;;;;;;;21.67;72.43;99633.15;1759731;81;20404;-70
2022/07/04 05:38:40;;;;;;;;;;;;;;;21.75;70.31;99634.80;1737160;81;20206;-70
2022/07/04 05:41:09;;;;;;;;;;;;;;;21.81;70.55;99633.05;1744724;80;20154;-69
2022/07/04 05:43:36;;;;;;;;;;;;;;;21.90;70.15;99632.10;1730648;82;21167;-71
2022/07/04 05:46:11;;;;;;;;;;;;;;;22.00;69.76;99635.53;1716556;83;20151;-70
2022/07/04 05:48:37;;;;;;;;;;;;;;;22.10;70.26;99632.63;1689495;84;20079;-69
2022/07/04 05:51:04;;;;;;;;;;;;;;;22.22;70.67;99634.48;1709287;84;20126;-70
2022/07/04 05:53:32;;;;;;;;;;;;;;;22.34;69.59;99634.75;1690324;84;20124;-70
2022/07/04 05:56:02;;;;;;;;;;;;;;;22.44;70.27;99628.41;1656576;85;20779;-70
2022/07/04 05:58:34;;;;;;;;;;;;;;;22.53;69.22;99624.61;1656437;85;20152;-70
2022/07/04 06:01:05;;;;;;;;;;;;;;;22.61;68.59;99626.84;1677495;85;20104;-71
2022/07/04 06:03:36;;;;;;;;;;;;;;;22.69;68.96;99632.66;1677291;85;20131;-69
2022/07/04 06:06:07;;;;;;;;;;;;;;;22.78;68.04;99622.49;1677727;85;20123;-70
2022/07/04 06:08:39;;;;;;;;;;;;;;;22.86;66.89;99622.15;1655645;85;20148;-71
2022/07/04 06:11:05;;;;;;;;;;;;;;;22.91;67.00;99621.76;1677482;85;20147;-70
2022/07/04 06:13:37;;;;;;;;;;;;;;;23.01;67.11;99620.98;1656185;85;20115;-70
2022/07/04 06:16:10;;;;;;;;;;;;;;;23.12;67.06;99617.36;1655546;85;20486;-70
2022/07/04 06:18:39;;;;;;;;;;;;;;;23.21;64.49;99611.58;1677575;85;20124;-70
2022/07/04 06:21:11;;;;;;;;;;;;;;;23.27;62.36;99609.17;1677422;85;21156;-70
2022/07/04 06:23:46;;;;;;;;;;;;;;;23.28;60.95;99615.78;1670697;85;20177;-69
2022/07/04 06:26:17;;;;;;;;;;;;;;;23.34;60.25;99609.98;1676587;84;20424;-69
2022/07/04 06:28:48;;;;;;;;;;;;;;;23.46;60.74;99610.18;1693727;84;20076;-70
2022/07/04 06:31:21;;;;;;;;;;;;;;;23.58;61.42;99604.20;1685402;84;20498;-69
2022/07/04 06:36:29;;;;;;;;;;;;;;;23.78;60.79;99606.55;1687094;82;20151;-70
2022/07/04 06:38:57;;;;;;;;;;;;;;;23.87;59.16;99601.33;1707494;84;20123;-72
2022/07/04 06:41:23;;;;;;;;;;;;;;;23.97;58.93;99602.70;1707585;84;20427;-70
2022/07/04 06:43:53;;;;;;;;;;;;;;;24.08;56.85;99601.88;1677787;85;20148;-69
2022/07/04 06:46:21;;;;;;;;;;;;;;;24.14;56.94;99602.46;1656271;85;20119;-69
2022/07/04 06:48:47;;;;;;;;;;;;;;;24.25;58.21;99600.45;1677380;85;20467;-69
2022/07/04 06:51:13;;;;;;;;;;;;;;;24.38;56.70;99603.58;1677787;85;20477;-69
2022/07/04 06:53:41;;;;;;;;;;;;;;;24.44;57.11;99596.94;1677444;85;20151;-69
2022/07/04 06:56:08;;;;;;;;;;;;;;;24.55;57.25;99592.88;1677490;85;20119;-69
2022/07/04 06:58:34;;;;;;;;;;;;;;;24.70;57.12;99595.00;1677472;85;20611;-70
2022/07/04 07:01:01;;;;;;;;;;;;;;;24.84;56.48;99599.09;1677503;85;20115;-69
2022/07/04 07:03:28;;;;;;;;;;;;;;;24.95;56.72;99594.22;1677488;85;20107;-69
2022/07/04 07:05:56;;;;;;;;;;;;;;;25.05;55.76;99591.17;1677460;85;20175;-69
2022/07/04 07:08:23;;;;;;;;;;;;;;;25.10;55.46;99592.14;1677766;85;20116;-69
2022/07/04 07:10:49;;;;;;;;;;;;;;;25.15;55.35;99593.70;1677501;85;21126;-69
2022/07/04 07:13:15;;;;;;;;;;;;;;;25.18;54.68;99590.08;1677632;84;20136;-69
2022/07/04 07:15:42;;;;;;;;;;;;;;;25.26;54.94;99590.21;1677533;85;20151;-69
2022/07/04 07:18:08;;;;;;;;;;;;;;;25.38;53.76;99586.91;1677426;85;20148;-69
2022/07/04 07:20:34;;;;;;;;;;;;;;;25.55;49.83;99587.32;1677538;85;20151;-69
2022/07/04 07:23:04;;;;;;;;;;;;;;;25.65;47.84;99587.06;1677417;85;21529;-69
2022/07/04 07:25:30;;;;;;;;;;;;;;;25.68;48.87;99583.41;1677409;85;20127;-69
2022/07/04 07:27:57;;;;;;;;;;;;;;;25.76;48.49;99589.16;1677437;85;20119;-70
2022/07/04 07:30:24;;;;;;;;;;;;;;;25.87;48.58;99579.20;1677782;85;20614;-69
2022/07/04 07:32:50;;;;;;;;;;;;;;;25.96;46.24;99580.91;1677474;85;20151;-69
2022/07/04 07:35:16;;;;;;;;;;;;;;;25.98;47.69;99586.31;1677720;85;21765;-69
2022/07/04 07:37:43;;;;;;;;;;;;;;;26.08;47.83;99583.16;1677357;85;20115;-69
2022/07/04 07:40:10;;;;;;;;;;;;;;;26.23;48.30;99584.59;1677553;84;20123;-69
2022/07/04 07:42:36;;;;;;;;;;;;;;;26.40;45.87;99581.39;1677383;84;20163;-69
2022/07/04 07:45:04;;;;;;;;;;;;;;;26.51;47.36;99582.05;1677787;85;20161;-69
2022/07/04 07:47:31;;;;;;;;;;;;;;;26.60;46.39;99582.91;1687176;85;21031;-69
2022/07/04 07:49:57;;;;;;;;;;;;;;;26.63;44.19;99587.70;1676147;85;20150;-69
2022/07/04 07:52:23;;;;;;;;;;;;;;;26.63;43.40;99582.86;1676496;84;20128;-69
2022/07/04 07:54:50;;;;;;;;;;;;;;;26.64;43.46;99582.25;1676461;84;20123;-70
2022/07/04 07:57:16;;;;;;;;;;;;;;;26.69;40.85;99586.00;1676308;85;20542;-69
2022/07/04 07:59:42;;;;;;;;;;;;;;;26.71;40.52;99593.42;1676512;85;21092;-69
2022/07/04 08:02:09;;;;;;;;;;;;;;;26.74;40.49;99584.13;1676177;85;20147;-69
2022/07/04 08:04:40;;;;;;;;;;;;;;;26.79;39.26;99575.20;1676241;85;20203;-69
2022/07/04 08:07:08;;;;;;;;;;;;;;;26.89;40.02;99574.86;1676451;85;20653;-69
2022/07/04 08:09:35;;;;;;;;;;;;;;;27.06;39.82;99573.02;1676224;85;20148;-69
2022/07/04 08:12:04;;;;;;;;;;;;;;;27.23;39.71;99567.07;1676299;85;22124;-69
2022/07/04 08:14:32;;;;;;;;;;;;;;;27.34;38.43;99566.09;1676137;85;20115;-69
2022/07/04 08:16:59;;;;;;;;;;;;;;;27.39;39.68;99555.74;1655108;85;20136;-69
2022/07/04 08:19:26;;;;;;;;;;;;;;;27.49;38.41;99560.40;1673619;84;20458;-70
2022/07/04 08:21:53;;;;;;;;;;;;;;;27.54;38.54;99564.93;1680778;84;20177;-69
2022/07/04 08:24:20;;;;;;;;;;;;;;;27.67;36.81;99560.91;1676057;85;21121;-69
2022/07/04 08:26:47;;;;;;;;;;;;;;;27.91;37.92;99560.22;1689188;85;20137;-69
2022/07/04 08:29:14;;;;;;;;;;;;;;;28.16;37.77;99563.34;1688940;84;20138;-69
2022/07/04 08:31:41;;;;;;;;;;;;;;;28.42;36.41;99555.95;1688841;85;20118;-69
2022/07/04 08:34:07;;;;;;;;;;;;;;;28.59;36.96;99553.97;1747410;82;20442;-70
2022/07/04 08:36:34;;;;;;;;;;;;;;;28.81;36.97;99552.25;1747083;82;21129;-70
2022/07/04 08:39:01;;;;;;;;;;;;;;;29.04;37.60;99549.09;1746037;82;20093;-70
2022/07/04 08:41:29;;;;;;;;;;;;;;;29.18;34.96;99556.61;1727938;82;20419;-70
2022/07/04 08:43:55;;;;;;;;;;;;;;;29.28;35.78;99553.34;1717573;83;20420;-69
2022/07/04 08:46:22;;;;;;;;;;;;;;;29.48;34.29;99546.95;1714223;82;20132;-71
2022/07/04 08:48:51;;;;;;;;;;;;;;;29.60;32.86;99553.13;1708495;84;21080;-69
2022/07/04 08:51:28;;;;;;;;;;;;;;;29.67;32.75;99552.94;1708964;84;20090;-69
2022/07/04 08:53:56;;;;;;;;;;;;;;;29.86;35.34;99543.52;1708459;84;20086;-70
2022/07/04 08:59:07;;;;;;;;;;;;;;;30.22;32.13;99549.75;1709235;84;20110;-69
2022/07/04 09:01:34;;;;;;;;;;;;;;;30.31;32.64;99553.97;1709329;84;21472;-69
2022/07/04 09:04:01;;;;;;;;;;;;;;;30.47;32.92;99548.22;1709088;84;20086;-70
2022/07/04 09:06:29;;;;;;;;;;;;;;;30.64;33.67;99544.67;1709189;84;20126;-70
2022/07/04 09:08:56;;;;;;;;;;;;;;;30.70;33.48;99548.53;1709080;84;20701;-69
2022/07/04 09:11:23;;;;;;;;;;;;;;;30.90;32.53;99556.81;1687007;84;20117;-70
2022/07/04 09:13:49;;;;;;;;;;;;;;;31.19;32.95;99543.33;1709177;84;21122;-69
2022/07/04 09:16:16;;;;;;;;;;;;;;;31.28;32.12;99544.81;1709130;84;20122;-71
2022/07/04 09:18:42;;;;;;;;;;;;;;;31.41;31.40;99547.62;1709046;82;20144;-69
2022/07/04 09:21:09;;;;;;;;;;;;;;;31.27;31.26;99536.14;1709022;84;20147;-70
2022/07/04 09:23:40;;;;;;;;;;;;;;;31.07;30.84;99546.94;1709389;84;20116;-69
2022/07/04 09:26:10;;;;;;;;;;;;;;;31.04;32.75;99547.22;1709104;84;21821;-69
2022/07/04 09:28:38;;;;;;;;;;;;;;;31.18;31.12;99545.37;1708996;84;20095;-69
2022/07/04 09:31:22;;;;;;;;;;;;;;;31.33;31.50;99537.77;1721943;82;20146;-69
2022/07/04 09:33:51;;;;;;;;;;;;;;;31.46;31.16;99532.23;1709446;82;20095;-69
2022/07/04 09:36:20;;;;;;;;;;;;;;;31.63;31.34;99529.23;1677533;85;20124;-70
2022/07/04 09:39:06;;;;;;;;;;;;;;;31.77;30.56;99528.76;1677155;84;21154;-71
2022/07/04 09:41:52;;;;;;;;;;;;;;;31.81;30.57;99533.65;1677155;85;20152;-69
2022/07/04 09:44:19;;;;;;;;;;;;;;;31.78;31.27;99527.47;1677613;84;20465;-70
2022/07/04 09:46:46;;;;;;;;;;;;;;;32.03;29.82;99525.14;1687829;84;20114;-70
2022/07/04 09:49:12;;;;;;;;;;;;;;;32.07;29.80;99528.64;1707972;84;20453;-70
2022/07/04 09:51:42;;;;;;;;;;;;;;;31.93;30.19;99522.07;1707820;82;21069;-72
2022/07/04 09:54:31;;;;;;;;;;;;;;;31.77;30.53;99533.02;1696736;84;20127;-69
2022/07/04 09:57:01;;;;;;;;;;;;;;;31.63;30.87;99536.33;1697917;84;20114;-71
2022/07/04 09:59:28;;;;;;;;;;;;;;;31.58;30.24;99522.73;1698218;83;20150;-72
2022/07/04 10:02:09;;;;;;;;;;;;;;;31.65;31.03;99527.52;1697813;84;20165;-73
2022/07/04 10:04:51;;;;;;;;;;;;;;;31.72;31.33;99523.05;1671588;84;21981;-69
2022/07/04 10:07:40;;;;;;;;;;;;;;;31.59;30.15;99519.43;1733292;81;20091;-71
2022/07/04 10:10:29;;;;;;;;;;;;;;;31.33;32.34;99518.71;1735762;81;20413;-72
2022/07/04 10:12:59;;;;;;;;;;;;;;;31.07;31.37;99517.17;1735644;82;20446;-71
2022/07/04 10:15:26;;;;;;;;;;;;;;;30.71;32.42;99519.74;1735993;82;20118;-71
2022/07/04 10:17:52;;;;;;;;;;;;;;;30.53;32.88;99506.14;1739484;81;20960;-72
2022/07/04 10:20:18;;;;;;;;;;;;;;;30.67;34.46;99508.36;1749048;81;20132;-70
2022/07/04 10:22:45;;;;;;;;;;;;;;;31.08;32.67;99508.84;1698431;84;20166;-72
2022/07/04 10:25:12;;;;;;;;;;;;;;;31.34;31.59;99508.95;1698266;84;20398;-71
2022/07/04 10:27:39;;;;;;;;;;;;;;;31.50;30.87;99501.70;1698349;84;20174;-70
2022/07/04 10:30:08;;;;;;;;;;;;;;;31.67;30.04;99494.43;1698566;83;21087;-72
2022/07/04 10:32:34;;;;;;;;;;;;;;;31.84;31.98;99497.25;1698478;83;20151;-72
2022/07/04 10:35:02;;;;;;;;;;;;;;;32.01;30.85;99498.63;1698231;84;20150;-74
2022/07/04 10:38:01;;;;;;;;;;;;;;;32.24;32.62;99502.28;1698311;84;20123;-70
2022/07/04 10:40:49;;;;;;;;;;;;;;;32.43;30.82;99502.52;1697711;84;20449;-72
2022/07/04 10:43:34;;;;;;;;;;;;;;;32.54;30.06;99494.98;1752295;81;21099;-71
2022/07/04 10:46:06;;;;;;;;;;;;;;;32.60;28.66;99497.38;1698280;84;20162;-71
2022/07/04 10:48:33;;;;;;;;;;;;;;;32.58;29.88;99487.12;1677727;84;20175;-71
2022/07/04 10:51:06;;;;;;;;;;;;;;;32.76;29.55;99490.06;1675788;85;20469;-71
2022/07/04 10:53:34;;;;;;;;;;;;;;;32.71;29.45;99494.28;1676068;85;20152;-71
2022/07/04 10:56:16;;;;;;;;;;;;;;;32.67;29.07;99490.00;1654443;85;21904;-71
2022/07/04 10:58:42;;;;;;;;;;;;;;;32.74;29.14;99484.81;1667685;85;20115;-71
2022/07/04 11:01:13;;;;;;;;;;;;;;;32.74;28.82;99482.60;1675800;85;20454;-71
2022/07/04 11:03:45;;;;;;;;;;;;;;;32.76;29.66;99473.80;1675839;85;20175;-70
2022/07/04 11:06:38;;;;;;;;;;;;;;;32.92;29.99;99477.64;1675726;85;20132;-70
2022/07/04 11:09:23;;;;;;;;;;;;;;;33.15;28.79;99479.24;1676167;84;21058;-70
2022/07/04 11:11:57;;;;;;;;;;;;;;;33.36;29.03;99473.30;1675770;85;20506;-70
2022/07/04 11:14:44;;;;;;;;;;;;;;;33.58;27.84;99475.17;1654456;85;20135;-70
2022/07/04 11:17:21;;;;;;;;;;;;;;;33.74;28.73;99472.00;1675747;84;20147;-70
2022/07/04 11:19:47;;;;;;;;;;;;;;;34.07;28.32;99469.30;1654421;85;20199;-70
2022/07/04 11:22:18;;;;;;;;;;;;;;;34.33;27.97;99464.00;1674502;84;21575;-71
2022/07/04 11:24:44;;;;;;;;;;;;;;;34.40;30.31;99469.36;1688776;84;20158;-70
2022/07/04 11:27:10;;;;;;;;;;;;;;;34.40;29.46;99460.81;1689146;85;20114;-70
2022/07/04 11:29:36;;;;;;;;;;;;;;;34.04;29.06;99462.50;1689053;85;20461;-70
2022/07/04 11:32:07;;;;;;;;;;;;;;;33.60;29.33;99462.68;1674276;84;20098;-71
2022/07/04 11:34:33;;;;;;;;;;;;;;;33.12;29.34;99459.48;1719174;82;21984;-72
2022/07/04 11:37:02;;;;;;;;;;;;;;;32.74;30.36;99456.39;1717707;82;20101;-73
2022/07/04 11:39:29;;;;;;;;;;;;;;;32.41;31.41;99457.53;1726560;82;20155;-74
2022/07/04 11:47:36;;;;;;;;;;;;;;;32.66;32.94;99445.78;1715589;81;22144;-72
2022/07/04 11:50:09;;;;;;;;;;;;;;;33.03;30.73;99438.93;1722477;82;20116;-71
2022/07/04 11:52:43;;;;;;;;;;;;;;;33.34;30.29;99436.63;1709965;83;20430;-71
2022/07/04 11:55:12;;;;;;;;;;;;;;;33.72;29.48;99433.26;1657143;85;20154;-71
2022/07/04 11:57:40;;;;;;;;;;;;;;;34.01;28.49;99436.40;1691151;85;20126;-71
2022/07/04 12:00:09;;;;;;;;;;;;;;;34.23;28.88;99442.48;1684946;85;21133;-72
2022/07/04 12:02:37;;;;;;;;;;;;;;;34.44;27.96;99435.78;1677533;85;20481;-72
2022/07/04 12:05:05;;;;;;;;;;;;;;;34.34;28.20;99429.33;1678111;85;20449;-72
2022/07/04 12:07:33;;;;;;;;;;;;;;;34.18;29.34;99426.83;1672502;85;20800;-72
2022/07/04 12:10:14;;;;;;;;;;;;;;;34.25;29.85;99429.34;1688837;84;20080;-72
2022/07/04 12:12:54;;;;;;;;;;;;;;;34.27;28.51;99423.95;1678180;84;21245;-72
2022/07/04 12:15:21;;;;;;;;;;;;;;;33.99;28.16;99423.91;1674323;85;20459;-71
2022/07/04 12:17:53;;;;;;;;;;;;;;;33.42;29.75;99422.24;1691169;84;20107;-72
2022/07/04 12:20:19;;;;;;;;;;;;;;;33.21;29.97;99417.47;1689827;84;20099;-72
2022/07/04 12:22:55;;;;;;;;;;;;;;;33.27;30.95;99424.90;1711548;82;20091;-71
2022/07/04 12:25:37;;;;;;;;;;;;;;;33.24;28.84;99423.00;1709781;84;21775;-71
2022/07/04 12:28:10;;;;;;;;;;;;;;;33.27;29.04;99416.36;1709755;83;20095;-70
2022/07/04 12:30:39;;;;;;;;;;;;;;;33.20;28.99;99420.94;1709910;84;20516;-70
2022/07/04 12:33:09;;;;;;;;;;;;;;;33.19;29.98;99415.09;1709831;84;20091;-70
2022/07/04 12:35:50;;;;;;;;;;;;;;;33.26;29.94;99413.36;1709843;84;20470;-70
2022/07/04 12:38:22;;;;;;;;;;;;;;;33.43;28.25;99411.81;1709772;83;21567;-70
2022/07/04 12:41:00;;;;;;;;;;;;;;;33.76;28.25;99416.80;1720241;81;20416;-70
2022/07/04 12:43:44;;;;;;;;;;;;;;;34.09;27.80;99419.10;1730317;82;20173;-70
2022/07/04 12:46:27;;;;;;;;;;;;;;;34.49;28.94;99412.33;1710065;83;20370;-74
2022/07/04 12:48:54;;;;;;;;;;;;;;;34.68;27.19;99414.42;1718749;82;20158;-71
2022/07/04 12:51:31;;;;;;;;;;;;;;;34.75;27.73;99411.22;1718650;82;21522;-70
2022/07/04 12:53:59;;;;;;;;;;;;;;;34.80;28.34;99412.00;1714787;82;20439;-69
2022/07/04 12:56:37;;;;;;;;;;;;;;;34.90;28.53;99399.27;1719038;82;20083;-70
2022/07/04 12:59:06;;;;;;;;;;;;;;;35.11;28.46;99400.23;1728452;82;20228;-70
2022/07/04 13:01:33;;;;;;;;;;;;;;;35.32;26.73;99394.04;1739330;81;20459;-69
2022/07/04 13:03:59;;;;;;;;;;;;;;;34.97;25.95;99399.54;1739199;81;21111;-70
2022/07/04 13:06:26;;;;;;;;;;;;;;;34.50;26.58;99405.36;1739201;82;20121;-69
2022/07/04 13:08:54;;;;;;;;;;;;;;;34.48;28.00;99399.35;1739262;82;20081;-70
2022/07/04 13:14:06;;;;;;;;;;;;;;;34.36;27.20;99387.53;1738408;82;20124;-72
2022/07/04 13:16:32;;;;;;;;;;;;;;;34.54;28.24;99380.95;1727238;82;21113;-70